createdAt,value
2023-04-16T00:01:51.171Z,63.58
2023-04-16T00:04:18.541Z,63.37
2023-04-16T00:06:45.854Z,63.60
2023-04-16T00:09:13.298Z,63.63
2023-04-16T00:11:40.398Z,63.92
2023-04-16T00:14:07.413Z,64.14
2023-04-16T00:16:34.813Z,64.46
2023-04-16T00:19:01.875Z,64.52
2023-04-16T00:21:29.243Z,64.82
2023-04-16T00:23:56.336Z,64.88
2023-04-16T00:26:23.488Z,65.12
2023-04-16T00:28:50.894Z,65.21
2023-04-16T00:31:18.044Z,65.52
2023-04-16T00:33:45.046Z,65.62
2023-04-16T00:36:12.133Z,65.81
2023-04-16T00:38:39.173Z,65.96
2023-04-16T00:41:06.177Z,66.32
2023-04-16T00:43:33.354Z,66.52
2023-04-16T00:46:00.686Z,66.45
2023-04-16T00:48:28.320Z,66.59
2023-04-16T00:50:56.212Z,66.75
2023-04-16T00:53:23.941Z,67.00
2023-04-16T00:55:51.215Z,67.29
2023-04-16T00:58:18.801Z,67.17
2023-04-16T01:00:45.799Z,67.56
2023-04-16T01:03:13.089Z,67.67
2023-04-16T01:05:41.060Z,67.47
2023-04-16T01:08:16.868Z,67.80
2023-04-16T01:10:43.857Z,68.01
2023-04-16T01:13:11.419Z,68.02
2023-04-16T01:15:38.834Z,68.02
2023-04-16T01:18:20.853Z,67.81
2023-04-16T01:20:49.315Z,67.95
2023-04-16T01:23:18.663Z,67.78
2023-04-16T01:25:46.685Z,67.66
2023-04-16T01:28:13.930Z,67.99
2023-04-16T01:30:41.652Z,67.99
2023-04-16T01:33:31.615Z,67.83
2023-04-16T01:35:59.752Z,67.68
2023-04-16T01:38:26.797Z,67.59
2023-04-16T01:41:00.344Z,67.52
2023-04-16T01:43:27.408Z,67.61
2023-04-16T01:46:11.249Z,67.55
2023-04-16T01:48:38.386Z,67.50
2023-04-16T01:51:05.752Z,67.55
2023-04-16T01:53:33.255Z,67.49
2023-04-16T01:56:01.495Z,67.21
2023-04-16T01:58:29.794Z,66.91
2023-04-16T02:00:57.093Z,67.19
2023-04-16T02:03:25.039Z,67.25
2023-04-16T02:05:53.147Z,67.22
2023-04-16T02:08:20.502Z,67.25
2023-04-16T02:10:48.164Z,66.98
2023-04-16T02:13:16.461Z,67.00
2023-04-16T02:15:50.884Z,66.92
2023-04-16T02:18:45.370Z,66.87
2023-04-16T02:21:14.636Z,66.69
2023-04-16T02:23:45.991Z,66.68
2023-04-16T02:26:13.771Z,66.59
2023-04-16T02:28:41.584Z,66.56
2023-04-16T02:31:11.104Z,66.42
2023-04-16T02:33:43.532Z,66.50
2023-04-16T02:36:11.347Z,66.38
2023-04-16T02:38:38.332Z,66.17
2023-04-16T02:41:07.519Z,66.05
2023-04-16T02:43:35.075Z,66.26
2023-04-16T02:46:02.731Z,66.06
2023-04-16T02:48:30.166Z,65.87
2023-04-16T02:50:57.227Z,65.76
2023-04-16T02:53:24.642Z,65.55
2023-04-16T02:55:54.806Z,65.54
2023-04-16T02:58:24.316Z,65.75
2023-04-16T03:00:55.146Z,65.66
2023-04-16T03:03:22.482Z,65.51
2023-04-16T03:05:49.727Z,65.46
2023-04-16T03:08:16.934Z,65.55
2023-04-16T03:10:43.821Z,65.43
2023-04-16T03:13:11.110Z,65.47
2023-04-16T03:15:39.905Z,65.56
2023-04-16T03:18:07.219Z,65.38
2023-04-16T03:20:34.264Z,65.24
2023-04-16T03:23:01.710Z,65.15
2023-04-16T03:25:28.809Z,65.18
2023-04-16T03:27:56.685Z,65.17
2023-04-16T03:30:24.208Z,65.35
2023-04-16T03:32:52.085Z,65.28
2023-04-16T03:35:19.547Z,65.35
2023-04-16T03:37:46.489Z,65.16
2023-04-16T03:40:14.361Z,65.38
2023-04-16T03:42:42.138Z,65.67
2023-04-16T03:45:09.616Z,65.89
2023-04-16T03:47:38.296Z,65.70
2023-04-16T03:50:06.203Z,65.43
2023-04-16T03:52:33.353Z,65.10
2023-04-16T03:55:00.382Z,65.13
2023-04-16T03:57:32.468Z,65.18
2023-04-16T04:00:09.313Z,65.38
2023-04-16T04:02:49.380Z,65.63
2023-04-16T04:05:19.760Z,65.91
2023-04-16T04:07:47.871Z,66.09
2023-04-16T04:10:15.747Z,65.99
2023-04-16T04:12:44.059Z,65.79
2023-04-16T04:15:11.901Z,65.70
2023-04-16T04:17:38.956Z,65.45
2023-04-16T04:20:06.733Z,65.28
2023-04-16T04:22:33.961Z,65.00
2023-04-16T04:25:00.915Z,64.83
2023-04-16T04:27:30.855Z,64.21
2023-04-16T04:29:58.166Z,63.54
2023-04-16T04:32:25.600Z,63.41
2023-04-16T04:34:52.735Z,63.59
2023-04-16T04:37:20.758Z,63.43
2023-04-16T04:39:47.918Z,63.31
2023-04-16T04:42:18.616Z,63.19
2023-04-16T04:44:46.760Z,63.04
2023-04-16T04:47:15.134Z,62.76
2023-04-16T04:49:42.415Z,62.42
2023-04-16T04:52:09.537Z,62.22
2023-04-16T04:54:36.592Z,61.83
2023-04-16T04:57:03.537Z,61.82
2023-04-16T04:59:30.852Z,61.62
2023-04-16T05:01:58.106Z,61.58
2023-04-16T05:04:25.649Z,61.42
2023-04-16T05:06:52.631Z,61.41
2023-04-16T05:09:20.766Z,61.38
2023-04-16T05:11:47.758Z,61.49
2023-04-16T05:14:14.773Z,61.02
2023-04-16T05:16:41.893Z,60.76
2023-04-16T05:19:09.422Z,60.60
2023-04-16T05:21:37.032Z,60.28
2023-04-16T05:24:04.244Z,59.75
2023-04-16T05:26:31.196Z,59.38
2023-04-16T05:28:58.471Z,59.41
2023-04-16T05:31:26.487Z,59.30
2023-04-16T05:33:53.591Z,58.66
2023-04-16T05:36:20.767Z,58.60
2023-04-16T05:38:47.786Z,58.83
2023-04-16T05:41:14.791Z,58.01
2023-04-16T05:43:41.885Z,57.73
2023-04-16T05:46:09.045Z,57.46
2023-04-16T05:48:36.215Z,56.88
2023-04-16T05:51:03.478Z,56.32
2023-04-16T05:53:30.579Z,56.63
2023-04-16T05:55:57.822Z,55.81
2023-04-16T05:58:24.894Z,55.68
2023-04-16T06:00:52.192Z,56.26
2023-04-16T06:03:19.294Z,55.66
2023-04-16T06:05:46.543Z,55.78
2023-04-16T06:08:13.630Z,55.78
2023-04-16T06:10:40.924Z,55.71
2023-04-16T06:13:07.986Z,55.51
2023-04-16T06:15:35.113Z,54.15
2023-04-16T06:18:02.246Z,53.99
2023-04-16T06:20:29.758Z,54.20
2023-04-16T06:22:57.238Z,52.68
2023-04-16T06:25:24.296Z,52.46
2023-04-16T06:27:51.479Z,52.83
2023-04-16T06:30:20.002Z,53.35
2023-04-16T06:32:47.223Z,53.08
2023-04-16T06:35:14.388Z,51.51
2023-04-16T06:37:41.617Z,52.51
2023-04-16T06:40:09.157Z,52.21
2023-04-16T06:42:36.392Z,50.76
2023-04-16T06:45:03.771Z,50.66
2023-04-16T06:47:32.446Z,50.61
2023-04-16T06:49:59.438Z,51.05
2023-04-16T06:52:26.511Z,51.21
2023-04-16T06:54:53.463Z,50.89
2023-04-16T06:57:20.799Z,49.76
2023-04-16T06:59:47.927Z,49.54
2023-04-16T07:02:15.108Z,50.25
2023-04-16T07:04:42.132Z,50.09
2023-04-16T07:07:09.303Z,50.18
2023-04-16T07:09:36.656Z,50.20
2023-04-16T07:12:03.993Z,50.66
2023-04-16T07:14:31.176Z,50.64
2023-04-16T07:16:58.450Z,50.17
2023-04-16T07:19:26.036Z,50.36
2023-04-16T07:21:53.236Z,50.30
2023-04-16T07:24:20.337Z,50.58
2023-04-16T07:26:47.397Z,50.75
2023-04-16T07:29:14.481Z,50.49
2023-04-16T07:31:41.791Z,50.75
2023-04-16T07:34:09.271Z,50.99
2023-04-16T07:36:36.378Z,51.05
2023-04-16T07:39:05.176Z,51.29
2023-04-16T07:41:32.484Z,50.66
2023-04-16T07:43:59.745Z,50.27
2023-04-16T07:46:33.125Z,49.37
2023-04-16T07:49:06.996Z,49.49
2023-04-16T07:51:34.030Z,49.63
2023-04-16T07:54:08.703Z,48.92
2023-04-16T07:56:36.249Z,49.33
2023-04-16T07:59:14.903Z,47.96
2023-04-16T08:01:46.603Z,48.18
2023-04-16T08:04:23.015Z,47.67
2023-04-16T08:06:51.653Z,47.15
2023-04-16T08:09:23.475Z,47.37
2023-04-16T08:11:51.653Z,46.63
2023-04-16T08:14:18.620Z,45.98
2023-04-16T08:16:45.754Z,45.45
2023-04-16T08:19:13.066Z,46.06
2023-04-16T08:21:40.779Z,44.66
2023-04-16T08:24:08.139Z,45.04
2023-04-16T08:26:35.450Z,45.85
2023-04-16T08:29:02.548Z,44.59
2023-04-16T08:31:29.848Z,45.28
2023-04-16T08:33:57.046Z,45.89
2023-04-16T08:36:24.251Z,46.24
2023-04-16T08:38:52.480Z,45.56
2023-04-16T08:41:22.185Z,45.43
2023-04-16T08:43:51.379Z,45.17
2023-04-16T08:46:22.730Z,45.23
2023-04-16T08:48:54.312Z,44.76
2023-04-16T08:51:22.678Z,44.50
2023-04-16T08:53:53.318Z,43.76
2023-04-16T08:56:23.165Z,44.11
2023-04-16T08:58:51.370Z,42.40
2023-04-16T09:01:19.717Z,41.46
2023-04-16T09:03:48.872Z,41.25
2023-04-16T09:06:16.812Z,41.56
2023-04-16T09:08:48.443Z,41.75
2023-04-16T09:11:18.537Z,42.31
2023-04-16T09:13:47.583Z,43.20
2023-04-16T09:16:15.393Z,43.48
2023-04-16T09:18:42.522Z,43.82
2023-04-16T09:21:12.974Z,42.99
2023-04-16T09:23:40.655Z,41.66
2023-04-16T09:26:07.712Z,41.43
2023-04-16T09:28:48.209Z,41.17
2023-04-16T09:31:17.274Z,40.50
2023-04-16T09:34:01.006Z,40.84
2023-04-16T09:36:28.293Z,40.99
2023-04-16T09:38:57.616Z,41.78
2023-04-16T09:41:31.345Z,40.97
2023-04-16T09:44:05.123Z,41.00
2023-04-16T09:46:35.356Z,40.16
2023-04-16T09:49:10.699Z,40.92
2023-04-16T09:51:40.813Z,41.12
2023-04-16T09:54:08.383Z,42.50
2023-04-16T09:56:46.848Z,42.50
2023-04-16T09:59:21.558Z,41.42
2023-04-16T10:01:50.372Z,41.63
2023-04-16T10:04:17.676Z,42.34
2023-04-16T10:06:46.934Z,42.01
2023-04-16T10:09:13.928Z,41.62
2023-04-16T10:11:42.839Z,41.65
2023-04-16T10:14:11.163Z,41.81
2023-04-16T10:16:41.158Z,41.92
2023-04-16T10:19:11.451Z,40.77
2023-04-16T10:21:38.806Z,40.42
2023-04-16T10:24:06.495Z,40.73
2023-04-16T10:26:33.729Z,39.79
2023-04-16T10:29:01.398Z,39.15
2023-04-16T10:31:29.403Z,39.28
2023-04-16T10:33:57.926Z,40.53
2023-04-16T10:36:26.752Z,40.33
2023-04-16T10:38:58.487Z,37.55
2023-04-16T10:41:28.973Z,38.25
2023-04-16T10:44:06.637Z,38.05
2023-04-16T10:46:36.731Z,37.11
2023-04-16T10:49:15.127Z,36.57
2023-04-16T10:51:42.628Z,37.21
2023-04-16T10:54:11.221Z,36.43
2023-04-16T10:56:38.395Z,36.00
2023-04-16T10:59:06.769Z,36.06
2023-04-16T11:01:41.119Z,36.40
2023-04-16T11:04:20.650Z,35.89
2023-04-16T11:07:07.244Z,34.79
2023-04-16T11:10:12.779Z,36.25
2023-04-16T11:12:46.378Z,37.08
2023-04-16T11:15:16.042Z,35.94
2023-04-16T11:17:45.268Z,35.52
2023-04-16T11:20:19.130Z,36.47
2023-04-16T11:22:53.057Z,35.66
2023-04-16T11:25:26.947Z,35.28
2023-04-16T11:27:54.807Z,34.78
2023-04-16T11:30:30.520Z,36.39
2023-04-16T11:32:57.607Z,36.46
2023-04-16T11:35:24.904Z,36.04
2023-04-16T11:37:56.432Z,37.93
2023-04-16T11:40:23.693Z,36.90
2023-04-16T11:42:50.807Z,37.08
2023-04-16T11:45:20.844Z,37.54
2023-04-16T11:47:52.580Z,37.48
2023-04-16T11:50:24.880Z,38.07
2023-04-16T11:52:53.752Z,37.66
2023-04-16T11:55:22.091Z,38.08
2023-04-16T11:57:50.111Z,38.04
2023-04-16T12:00:19.267Z,37.27
2023-04-16T12:02:54.053Z,38.08
2023-04-16T12:05:39.151Z,38.12
2023-04-16T12:08:09.432Z,38.45
2023-04-16T12:10:38.730Z,37.67
2023-04-16T12:13:15.400Z,36.71
2023-04-16T12:15:48.660Z,36.80
2023-04-16T12:18:17.059Z,36.76
2023-04-16T12:20:45.312Z,36.77
2023-04-16T12:23:32.925Z,36.24
2023-04-16T12:26:10.570Z,36.84
2023-04-16T12:28:41.780Z,36.44
2023-04-16T12:31:10.791Z,36.21
2023-04-16T12:33:37.983Z,36.97
2023-04-16T12:36:20.308Z,36.00
2023-04-16T12:38:47.455Z,35.76
2023-04-16T12:41:14.510Z,36.44
2023-04-16T12:43:41.459Z,35.95
2023-04-16T12:46:08.515Z,36.14
2023-04-16T12:48:35.671Z,37.46
2023-04-16T12:51:03.046Z,37.63
2023-04-16T12:53:30.105Z,36.93
2023-04-16T12:55:57.150Z,37.89
2023-04-16T12:58:24.200Z,38.77
2023-04-16T13:00:51.278Z,40.02
2023-04-16T13:03:18.459Z,41.42
2023-04-16T13:05:45.587Z,42.97
2023-04-16T13:08:13.058Z,41.15
2023-04-16T13:10:40.113Z,41.35
2023-04-16T13:13:25.823Z,42.46
2023-04-16T13:15:52.935Z,42.63
2023-04-16T13:18:20.096Z,42.95
2023-04-16T13:20:47.069Z,42.25
2023-04-16T13:23:14.068Z,41.65
2023-04-16T13:25:41.205Z,42.06
2023-04-16T13:28:08.440Z,41.58
2023-04-16T13:30:35.644Z,42.92
2023-04-16T13:33:02.887Z,43.71
2023-04-16T13:35:30.993Z,44.82
2023-04-16T13:37:57.997Z,45.47
2023-04-16T13:40:25.139Z,45.80
2023-04-16T13:42:52.147Z,46.38
2023-04-16T13:45:20.667Z,46.67
2023-04-16T13:47:47.870Z,46.98
2023-04-16T13:50:16.309Z,47.11
2023-04-16T13:52:43.410Z,47.19
2023-04-16T13:55:10.769Z,47.41
2023-04-16T13:57:38.134Z,47.38
2023-04-16T14:00:05.814Z,47.05
2023-04-16T14:02:33.709Z,47.67
2023-04-16T14:05:00.731Z,47.78
2023-04-16T14:07:27.844Z,47.53
2023-04-16T14:09:54.931Z,47.85
2023-04-16T14:12:22.147Z,48.98
2023-04-16T14:14:49.351Z,49.57
2023-04-16T14:17:16.426Z,50.84
2023-04-16T14:19:43.433Z,51.85
2023-04-16T14:22:10.458Z,51.98
2023-04-16T14:24:37.461Z,51.44
2023-04-16T14:27:04.534Z,51.98
2023-04-16T14:29:31.548Z,51.41
2023-04-16T14:31:58.885Z,52.21
2023-04-16T14:34:25.850Z,52.36
2023-04-16T14:36:53.159Z,54.98
2023-04-16T14:39:20.273Z,55.62
2023-04-16T14:41:47.326Z,55.93
2023-04-16T14:44:14.907Z,55.91
2023-04-16T14:46:41.830Z,56.66
2023-04-16T14:49:11.961Z,57.28
2023-04-16T14:51:39.733Z,58.73
2023-04-16T14:54:06.934Z,59.26
2023-04-16T14:56:34.005Z,62.20
2023-04-16T14:59:01.040Z,64.06
2023-04-16T15:01:28.770Z,64.95
2023-04-16T15:03:57.115Z,66.59
2023-04-16T15:06:24.511Z,67.01
2023-04-16T15:08:51.728Z,67.66
2023-04-16T15:11:18.738Z,68.78
2023-04-16T15:13:45.704Z,68.84
2023-04-16T15:16:13.174Z,68.80
2023-04-16T15:18:40.480Z,68.33
2023-04-16T15:21:07.476Z,69.74
2023-04-16T15:23:34.635Z,70.70
2023-04-16T15:26:01.793Z,71.33
2023-04-16T15:28:28.959Z,71.74
2023-04-16T15:30:56.644Z,72.03
2023-04-16T15:33:23.752Z,71.66
2023-04-16T15:35:51.724Z,72.88
2023-04-16T15:38:21.311Z,72.78
2023-04-16T15:40:48.323Z,73.36
2023-04-16T15:43:16.014Z,72.59
2023-04-16T15:45:43.092Z,71.39
2023-04-16T15:48:10.270Z,70.39
2023-04-16T15:50:37.560Z,71.16
2023-04-16T15:53:04.818Z,71.59
2023-04-16T15:55:31.952Z,71.58
2023-04-16T15:57:58.920Z,71.71
2023-04-16T16:00:26.386Z,71.49
2023-04-16T16:02:53.558Z,71.22
2023-04-16T16:05:20.903Z,71.60
2023-04-16T16:07:48.006Z,70.98
2023-04-16T16:10:17.075Z,70.80
2023-04-16T16:12:44.568Z,71.01
2023-04-16T16:15:12.064Z,71.23
2023-04-16T16:17:40.586Z,71.26
2023-04-16T16:20:10.714Z,71.04
2023-04-16T16:22:38.372Z,70.71
2023-04-16T16:25:06.049Z,70.47
2023-04-16T16:27:32.994Z,70.69
2023-04-16T16:30:01.112Z,70.46
2023-04-16T16:32:28.325Z,70.79
2023-04-16T16:34:56.028Z,71.24
2023-04-16T16:37:23.097Z,71.48
2023-04-16T16:39:50.524Z,71.62
2023-04-16T16:42:19.004Z,71.84
2023-04-16T16:44:49.438Z,71.67
2023-04-16T16:47:16.578Z,71.21
2023-04-16T16:49:44.083Z,71.63
2023-04-16T16:52:11.122Z,71.87
2023-04-16T16:54:38.184Z,72.39
2023-04-16T16:57:05.209Z,72.40
2023-04-16T16:59:32.158Z,72.70
2023-04-16T17:01:59.252Z,72.71
2023-04-16T17:04:26.291Z,72.84
2023-04-16T17:06:53.454Z,73.22
2023-04-16T17:09:20.445Z,73.11
2023-04-16T17:11:47.508Z,73.44
2023-04-16T17:14:14.493Z,73.69
2023-04-16T17:16:41.629Z,73.61
2023-04-16T17:19:08.938Z,73.84
2023-04-16T17:21:36.285Z,74.41
2023-04-16T17:24:03.809Z,74.65
2023-04-16T17:26:31.940Z,74.86
2023-04-16T17:28:59.437Z,74.71
2023-04-16T17:31:27.653Z,74.64
2023-04-16T17:33:54.781Z,74.92
2023-04-16T17:36:23.076Z,75.30
2023-04-16T17:38:50.688Z,75.26
2023-04-16T17:41:17.851Z,75.50
2023-04-16T17:43:47.946Z,75.44
2023-04-16T17:46:15.268Z,75.82
2023-04-16T17:48:44.046Z,76.14
2023-04-16T17:51:12.981Z,76.50
2023-04-16T17:53:42.672Z,77.43
2023-04-16T17:56:10.071Z,77.94
2023-04-16T17:58:37.512Z,78.17
2023-04-16T18:01:05.336Z,78.68
2023-04-16T18:03:32.973Z,78.96
2023-04-16T18:06:00.815Z,79.38
2023-04-16T18:08:28.762Z,79.27
2023-04-16T18:10:56.867Z,79.51
2023-04-16T18:13:24.542Z,79.51
2023-04-16T18:15:53.010Z,79.81
2023-04-16T18:18:21.351Z,80.41
2023-04-16T18:20:48.631Z,80.58
2023-04-16T18:23:15.943Z,80.68
2023-04-16T18:25:43.314Z,80.55
2023-04-16T18:28:13.615Z,80.71
2023-04-16T18:30:41.378Z,80.52
2023-04-16T18:33:37.296Z,80.13
2023-04-16T18:35:55.380Z,79.56
2023-04-16T18:38:22.456Z,79.44
2023-04-16T18:40:49.881Z,79.48
2023-04-16T18:43:17.075Z,79.90
2023-04-16T18:45:44.047Z,79.91
2023-04-16T18:48:11.532Z,79.71
2023-04-16T18:50:38.610Z,79.45
2023-04-16T18:53:05.883Z,79.37
2023-04-16T18:55:32.888Z,78.99
2023-04-16T18:58:00.147Z,79.19
2023-04-16T19:00:27.327Z,78.81
2023-04-16T19:02:54.634Z,78.82
2023-04-16T19:05:23.042Z,78.88
2023-04-16T19:07:50.218Z,79.00
2023-04-16T19:10:17.340Z,79.08
2023-04-16T19:12:44.557Z,78.89
2023-04-16T19:15:11.700Z,78.95
2023-04-16T19:17:39.961Z,79.38
2023-04-16T19:20:11.626Z,79.60
2023-04-16T19:22:39.014Z,79.85
2023-04-16T19:25:07.267Z,79.75
2023-04-16T19:27:34.930Z,79.89
2023-04-16T19:30:03.574Z,79.71
2023-04-16T19:32:32.747Z,79.70
2023-04-16T19:34:59.987Z,79.54
2023-04-16T19:37:30.855Z,79.38
2023-04-16T19:39:57.969Z,78.87
2023-04-16T19:42:25.249Z,79.05
2023-04-16T19:44:52.388Z,78.65
2023-04-16T19:47:20.110Z,78.85
2023-04-16T19:49:47.514Z,78.91
2023-04-16T19:52:15.279Z,78.65
2023-04-16T19:54:43.055Z,78.72
2023-04-16T19:57:10.135Z,78.49
2023-04-16T19:59:38.348Z,78.06
2023-04-16T20:02:05.632Z,78.06
2023-04-16T20:04:32.727Z,77.73
2023-04-16T20:06:59.967Z,77.76
2023-04-16T20:09:27.066Z,77.89
2023-04-16T20:11:54.211Z,77.58
2023-04-16T20:14:21.487Z,77.53
2023-04-16T20:16:48.539Z,77.30
2023-04-16T20:19:18.888Z,77.39
2023-04-16T20:21:46.249Z,77.54
2023-04-16T20:24:15.522Z,77.42
2023-04-16T20:26:43.009Z,77.44
2023-04-16T20:29:10.692Z,77.41
2023-04-16T20:31:37.795Z,77.43
2023-04-16T20:34:04.816Z,77.36
2023-04-16T20:36:32.002Z,77.04
2023-04-16T20:38:59.903Z,76.86
2023-04-16T20:41:30.051Z,76.93
2023-04-16T20:43:57.057Z,76.79
2023-04-16T20:46:30.298Z,76.82
2023-04-16T20:48:57.616Z,76.89
2023-04-16T20:51:24.628Z,76.81
2023-04-16T20:53:52.295Z,76.75
2023-04-16T20:56:19.594Z,76.38
2023-04-16T20:58:46.674Z,76.39
2023-04-16T21:01:13.673Z,76.30
2023-04-16T21:03:40.871Z,76.23
2023-04-16T21:06:08.375Z,76.46
2023-04-16T21:08:35.832Z,76.72
2023-04-16T21:11:02.802Z,76.77
2023-04-16T21:13:29.891Z,76.89
2023-04-16T21:15:56.877Z,76.92
2023-04-16T21:18:23.968Z,77.32
2023-04-16T21:20:51.147Z,77.46
2023-04-16T21:23:18.229Z,77.71
2023-04-16T21:25:45.309Z,78.03
2023-04-16T21:28:12.305Z,78.19
2023-04-16T21:30:39.635Z,78.16
2023-04-16T21:33:07.115Z,78.27
2023-04-16T21:35:34.147Z,78.50
2023-04-16T21:38:01.096Z,78.53
2023-04-16T21:40:28.443Z,78.61
2023-04-16T21:42:55.456Z,78.72
2023-04-16T21:45:22.582Z,79.14
2023-04-16T21:47:49.703Z,79.29
2023-04-16T21:50:16.912Z,79.31
2023-04-16T21:52:46.135Z,79.67
2023-04-16T21:55:14.442Z,80.00
2023-04-16T21:57:41.324Z,80.42
2023-04-16T22:00:12.121Z,80.92
2023-04-16T22:02:41.288Z,80.99
2023-04-16T22:05:09.266Z,80.90
2023-04-16T22:07:36.905Z,81.17
2023-04-16T22:10:04.892Z,81.20
2023-04-16T22:12:32.438Z,81.20
2023-04-16T22:15:02.880Z,81.25
2023-04-16T22:17:34.144Z,81.35
2023-04-16T22:20:21.893Z,81.20
2023-04-16T22:22:49.310Z,81.65
2023-04-16T22:25:16.436Z,81.81
2023-04-16T22:27:43.615Z,81.89
2023-04-16T22:30:11.343Z,82.06
2023-04-16T22:32:38.299Z,82.31
2023-04-16T22:35:05.780Z,82.31
2023-04-16T22:37:33.623Z,82.43
2023-04-16T22:40:00.653Z,82.33
2023-04-16T22:42:27.787Z,82.24
2023-04-16T22:44:54.716Z,82.29
2023-04-16T22:47:22.730Z,82.23
2023-04-16T22:49:50.339Z,82.03
2023-04-16T22:52:17.484Z,82.29
2023-04-16T22:54:44.408Z,82.14
2023-04-16T22:57:11.651Z,82.08
2023-04-16T22:59:39.034Z,82.16
2023-04-16T23:02:07.491Z,82.44
2023-04-16T23:04:34.718Z,82.30
2023-04-16T23:07:01.829Z,82.47
2023-04-16T23:09:28.757Z,82.69
2023-04-16T23:11:56.274Z,82.49
2023-04-16T23:14:23.903Z,82.45
2023-04-16T23:16:51.087Z,82.60
2023-04-16T23:19:18.072Z,82.56
2023-04-16T23:21:45.260Z,82.50
2023-04-16T23:24:12.341Z,82.83
2023-04-16T23:26:39.411Z,82.73
2023-04-16T23:29:06.771Z,82.72
2023-04-16T23:31:33.906Z,82.77
2023-04-16T23:34:02.352Z,83.13
2023-04-16T23:36:29.340Z,83.07
2023-04-16T23:38:56.523Z,83.34
2023-04-16T23:41:23.797Z,83.22
2023-04-16T23:43:50.986Z,83.11
2023-04-16T23:46:18.170Z,83.27
2023-04-16T23:48:45.272Z,83.12
2023-04-16T23:51:12.444Z,83.19
2023-04-16T23:53:40.845Z,83.45
2023-04-16T23:56:11.136Z,83.18
2023-04-16T23:58:38.551Z,83.22
